EHBK/MST METAR and TAF weather

Enter ICAO airport designator
Station Type Date Time Source
EHBK METAR 2021/06/22 23:55 UTC NOAA

EHBK 222355Z AUTO 01010KT 330V050 9999 FEW006 BKN011 BKN013 13/12 Q1019


Station Type Date Time Source
EHBK Decoded METAR 2021/06/22 23:55 UTC NOAA

Maastricht Airport Zuid Limburg, Netherlands (EHBK) 50-55N 005-47E 116M
Jun 22, 2021 - 07:55 PM EDT / 2021.06.22 2355 UTC
Wind: from the N (010 degrees) at 12 MPH (10 KT) (direction variable):0
Visibility: greater than 7 mile(s):0
Sky conditions: mostly cloudy
Temperature: 55 F (13 C)
Dew Point: 53 F (12 C)
Relative Humidity: 93%
Pressure (altimeter): 30.09 in. Hg (1019 hPa)
ob: EHBK 222355Z AUTO 01010KT 330V050 9999 FEW006 BKN011 BKN013 13/12 Q1019
cycle: 0

Station Type Date Time Source
EHBK TAF 2021/06/22 21:29 UTC NOAA

TAF
AMD EHBK 222122Z 2221/2324 03007KT 6000 BKN030
TEMPO 2221/2224 3500 -DZ BR BKN012
BECMG 2222/2301 4000 BR BKN006 PROB40
TEMPO 2301/2306 2000 BR DZ BKN004 PROB40 2301/2308 6000 NSW BKN012
BECMG 2306/2309 9999 NSW BKN012
BECMG 2309/2311 BKN020

Example: see airport list